sensor_id;sensor_type;location;lat;lon;timestamp;P1;durP1;ratioP1;P2;durP2;ratioP2
1585;SDS011;786;48.718;9.514;2024-01-15T00:00:04;37.75;;;16.45;;
1585;SDS011;786;48.718;9.514;2024-01-15T00:02:33;36.20;;;16.75;;
1585;SDS011;786;48.718;9.514;2024-01-15T00:04:59;39.85;;;14.65;;
1585;SDS011;786;48.718;9.514;2024-01-15T00:07:25;34.55;;;14.27;;
1585;SDS011;786;48.718;9.514;2024-01-15T00:09:52;33.35;;;14.00;;
1585;SDS011;786;48.718;9.514;2024-01-15T00:12:18;33.63;;;14.50;;
1585;SDS011;786;48.718;9.514;2024-01-15T00:14:45;36.60;;;15.70;;
1585;SDS011;786;48.718;9.514;2024-01-15T00:17:11;32.08;;;14.13;;
1585;SDS011;786;48.718;9.514;2024-01-15T00:19:39;34.30;;;15.23;;
1585;SDS011;786;48.718;9.514;2024-01-15T00:22:05;29.98;;;13.80;;
1585;SDS011;786;48.718;9.514;2024-01-15T00:24:31;36.92;;;15.90;;
1585;SDS011;786;48.718;9.514;2024-01-15T00:26:58;37.25;;;15.88;;
1585;SDS011;786;48.718;9.514;2024-01-15T00:29:24;40.13;;;17.60;;
1585;SDS011;786;48.718;9.514;2024-01-15T00:31:51;35.88;;;14.82;;
1585;SDS011;786;48.718;9.514;2024-01-15T00:34:17;32.97;;;14.85;;
1585;SDS011;786;48.718;9.514;2024-01-15T00:36:45;36.28;;;15.98;;
1585;SDS011;786;48.718;9.514;2024-01-15T00:39:11;34.42;;;14.30;;
1585;SDS011;786;48.718;9.514;2024-01-15T00:41:37;39.83;;;15.38;;
1585;SDS011;786;48.718;9.514;2024-01-15T00:44:04;34.85;;;14.82;;
1585;SDS011;786;48.718;9.514;2024-01-15T00:46:30;36.28;;;15.93;;
1585;SDS011;786;48.718;9.514;2024-01-15T00:48:56;32.95;;;13.57;;
1585;SDS011;786;48.718;9.514;2024-01-15T00:51:23;31.90;;;14.50;;
1585;SDS011;786;48.718;9.514;2024-01-15T00:53:51;36.28;;;14.25;;
1585;SDS011;786;48.718;9.514;2024-01-15T00:56:17;35.75;;;14.75;;
1585;SDS011;786;48.718;9.514;2024-01-15T00:58:43;33.28;;;13.25;;
1585;SDS011;786;48.718;9.514;2024-01-15T01:01:10;30.13;;;13.30;;
1585;SDS011;786;48.718;9.514;2024-01-15T01:03:36;40.92;;;16.13;;
1585;SDS011;786;48.718;9.514;2024-01-15T01:06:03;33.95;;;15.85;;
1585;SDS011;786;48.718;9.514;2024-01-15T01:08:29;33.33;;;14.48;;
1585;SDS011;786;48.718;9.514;2024-01-15T01:13:22;38.55;;;16.17;;
1585;SDS011;786;48.718;9.514;2024-01-15T01:15:49;33.03;;;14.38;;
1585;SDS011;786;48.718;9.514;2024-01-15T01:18:15;38.90;;;15.63;;
1585;SDS011;786;48.718;9.514;2024-01-15T01:20:41;33.42;;;13.70;;
1585;SDS011;786;48.718;9.514;2024-01-15T01:23:08;31.63;;;14.02;;
1585;SDS011;786;48.718;9.514;2024-01-15T01:25:34;28.20;;;12.27;;
1585;SDS011;786;48.718;9.514;2024-01-15T01:28:02;23.85;;;10.07;;
1585;SDS011;786;48.718;9.514;2024-01-15T01:30:29;19.25;;;8.25;;
1585;SDS011;786;48.718;9.514;2024-01-15T01:32:55;20.33;;;9.32;;
1585;SDS011;786;48.718;9.514;2024-01-15T01:35:21;19.13;;;9.00;;
1585;SDS011;786;48.718;9.514;2024-01-15T01:37:48;15.45;;;8.32;;
1585;SDS011;786;48.718;9.514;2024-01-15T01:40:14;19.98;;;8.90;;
1585;SDS011;786;48.718;9.514;2024-01-15T01:42:41;23.45;;;9.43;;
1585;SDS011;786;48.718;9.514;2024-01-15T01:45:09;22.33;;;9.50;;
1585;SDS011;786;48.718;9.514;2024-01-15T01:47:36;19.77;;;8.65;;
1585;SDS011;786;48.718;9.514;2024-01-15T01:50:02;25.65;;;10.27;;
1585;SDS011;786;48.718;9.514;2024-01-15T01:52:29;18.55;;;8.07;;
1585;SDS011;786;48.718;9.514;2024-01-15T01:54:56;13.15;;;7.18;;
1585;SDS011;786;48.718;9.514;2024-01-15T01:57:23;19.00;;;7.57;;
1585;SDS011;786;48.718;9.514;2024-01-15T01:59:49;15.98;;;7.82;;
1585;SDS011;786;48.718;9.514;2024-01-15T02:02:18;15.90;;;7.55;;
1585;SDS011;786;48.718;9.514;2024-01-15T02:04:44;19.05;;;6.88;;
1585;SDS011;786;48.718;9.514;2024-01-15T02:07:13;14.80;;;7.15;;
1585;SDS011;786;48.718;9.514;2024-01-15T02:09:42;15.68;;;6.97;;
1585;SDS011;786;48.718;9.514;2024-01-15T02:12:09;13.85;;;6.93;;
1585;SDS011;786;48.718;9.514;2024-01-15T02:14:35;14.15;;;6.60;;
1585;SDS011;786;48.718;9.514;2024-01-15T02:17:01;10.73;;;6.68;;
1585;SDS011;786;48.718;9.514;2024-01-15T02:19:29;12.25;;;6.10;;
1585;SDS011;786;48.718;9.514;2024-01-15T02:21:55;18.52;;;7.28;;
1585;SDS011;786;48.718;9.514;2024-01-15T02:24:23;12.07;;;6.55;;
1585;SDS011;786;48.718;9.514;2024-01-15T02:26:50;14.82;;;7.15;;
1585;SDS011;786;48.718;9.514;2024-01-15T02:29:16;15.77;;;6.75;;
1585;SDS011;786;48.718;9.514;2024-01-15T02:31:43;14.85;;;6.82;;
1585;SDS011;786;48.718;9.514;2024-01-15T02:34:09;14.43;;;6.43;;
1585;SDS011;786;48.718;9.514;2024-01-15T02:36:36;11.07;;;5.43;;
1585;SDS011;786;48.718;9.514;2024-01-15T02:39:02;13.35;;;6.60;;
1585;SDS011;786;48.718;9.514;2024-01-15T02:41:30;12.80;;;5.80;;
1585;SDS011;786;48.718;9.514;2024-01-15T02:43:56;13.77;;;5.97;;
1585;SDS011;786;48.718;9.514;2024-01-15T02:46:23;14.82;;;6.47;;
1585;SDS011;786;48.718;9.514;2024-01-15T02:48:49;12.95;;;5.18;;
1585;SDS011;786;48.718;9.514;2024-01-15T02:51:16;13.15;;;6.72;;
1585;SDS011;786;48.718;9.514;2024-01-15T02:53:42;14.75;;;5.95;;
1585;SDS011;786;48.718;9.514;2024-01-15T02:56:08;18.75;;;6.93;;
1585;SDS011;786;48.718;9.514;2024-01-15T02:58:36;15.75;;;6.30;;
1585;SDS011;786;48.718;9.514;2024-01-15T03:01:02;14.93;;;5.05;;
1585;SDS011;786;48.718;9.514;2024-01-15T03:03:29;12.18;;;5.70;;
1585;SDS011;786;48.718;9.514;2024-01-15T03:05:55;14.35;;;6.20;;
1585;SDS011;786;48.718;9.514;2024-01-15T03:08:22;13.90;;;6.25;;
1585;SDS011;786;48.718;9.514;2024-01-15T03:10:48;15.38;;;5.65;;
1585;SDS011;786;48.718;9.514;2024-01-15T03:13:15;13.73;;;5.95;;
1585;SDS011;786;48.718;9.514;2024-01-15T03:15:42;8.93;;;4.90;;
1585;SDS011;786;48.718;9.514;2024-01-15T03:18:09;10.93;;;4.93;;
1585;SDS011;786;48.718;9.514;2024-01-15T03:20:35;11.65;;;5.38;;
1585;SDS011;786;48.718;9.514;2024-01-15T03:23:02;12.77;;;5.40;;
1585;SDS011;786;48.718;9.514;2024-01-15T03:25:28;13.23;;;6.82;;
1585;SDS011;786;48.718;9.514;2024-01-15T03:27:54;13.90;;;5.38;;
1585;SDS011;786;48.718;9.514;2024-01-15T03:30:21;11.90;;;5.10;;
1585;SDS011;786;48.718;9.514;2024-01-15T03:32:49;13.63;;;5.25;;
1585;SDS011;786;48.718;9.514;2024-01-15T03:35:16;11.60;;;6.15;;
1585;SDS011;786;48.718;9.514;2024-01-15T03:37:42;9.68;;;5.10;;
1585;SDS011;786;48.718;9.514;2024-01-15T03:40:09;10.68;;;5.18;;
1585;SDS011;786;48.718;9.514;2024-01-15T03:42:36;10.40;;;5.60;;
1585;SDS011;786;48.718;9.514;2024-01-15T03:45:02;11.20;;;5.82;;
1585;SDS011;786;48.718;9.514;2024-01-15T03:47:29;13.15;;;6.40;;
1585;SDS011;786;48.718;9.514;2024-01-15T03:49:57;8.57;;;5.22;;
1585;SDS011;786;48.718;9.514;2024-01-15T03:52:24;11.73;;;5.43;;
1585;SDS011;786;48.718;9.514;2024-01-15T03:54:50;15.38;;;7.47;;
1585;SDS011;786;48.718;9.514;2024-01-15T03:57:16;11.27;;;6.75;;
1585;SDS011;786;48.718;9.514;2024-01-15T03:59:43;15.95;;;6.60;;
1585;SDS011;786;48.718;9.514;2024-01-15T04:02:12;16.50;;;6.65;;
1585;SDS011;786;48.718;9.514;2024-01-15T04:04:40;15.38;;;5.80;;
1585;SDS011;786;48.718;9.514;2024-01-15T04:07:08;13.95;;;6.90;;
1585;SDS011;786;48.718;9.514;2024-01-15T04:09:34;17.23;;;6.72;;
1585;SDS011;786;48.718;9.514;2024-01-15T04:12:01;17.33;;;8.13;;
1585;SDS011;786;48.718;9.514;2024-01-15T04:14:27;11.65;;;5.63;;
1585;SDS011;786;48.718;9.514;2024-01-15T04:16:53;15.40;;;5.93;;
1585;SDS011;786;48.718;9.514;2024-01-15T04:19:20;18.60;;;7.82;;
1585;SDS011;786;48.718;9.514;2024-01-15T04:21:46;21.77;;;7.15;;
1585;SDS011;786;48.718;9.514;2024-01-15T04:24:14;14.43;;;6.45;;
1585;SDS011;786;48.718;9.514;2024-01-15T04:26:42;17.05;;;7.15;;
1585;SDS011;786;48.718;9.514;2024-01-15T04:29:09;13.57;;;6.60;;
1585;SDS011;786;48.718;9.514;2024-01-15T04:31:35;11.00;;;5.47;;
1585;SDS011;786;48.718;9.514;2024-01-15T04:34:02;12.82;;;5.82;;
1585;SDS011;786;48.718;9.514;2024-01-15T04:36:28;14.15;;;5.75;;
1585;SDS011;786;48.718;9.514;2024-01-15T04:38:54;15.63;;;5.63;;
1585;SDS011;786;48.718;9.514;2024-01-15T04:41:22;11.55;;;5.45;;
1585;SDS011;786;48.718;9.514;2024-01-15T04:43:49;12.07;;;5.68;;
1585;SDS011;786;48.718;9.514;2024-01-15T04:46:15;10.75;;;5.60;;
1585;SDS011;786;48.718;9.514;2024-01-15T04:48:41;11.52;;;5.50;;
1585;SDS011;786;48.718;9.514;2024-01-15T04:51:08;14.82;;;5.90;;
1585;SDS011;786;48.718;9.514;2024-01-15T04:53:35;13.50;;;5.43;;
1585;SDS011;786;48.718;9.514;2024-01-15T04:56:02;9.73;;;5.03;;
1585;SDS011;786;48.718;9.514;2024-01-15T04:58:29;10.13;;;5.25;;
1585;SDS011;786;48.718;9.514;2024-01-15T05:00:55;14.13;;;6.03;;
1585;SDS011;786;48.718;9.514;2024-01-15T05:03:21;11.85;;;4.93;;
1585;SDS011;786;48.718;9.514;2024-01-15T05:05:48;11.82;;;6.00;;
1585;SDS011;786;48.718;9.514;2024-01-15T05:08:14;9.35;;;4.75;;
1585;SDS011;786;48.718;9.514;2024-01-15T05:10:41;14.77;;;5.72;;
1585;SDS011;786;48.718;9.514;2024-01-15T05:13:07;11.95;;;5.53;;
1585;SDS011;786;48.718;9.514;2024-01-15T05:15:35;12.77;;;5.57;;
1585;SDS011;786;48.718;9.514;2024-01-15T05:18:02;11.07;;;4.93;;
1585;SDS011;786;48.718;9.514;2024-01-15T05:20:28;10.32;;;5.13;;
1585;SDS011;786;48.718;9.514;2024-01-15T05:22:55;11.48;;;5.05;;
1585;SDS011;786;48.718;9.514;2024-01-15T05:25:21;15.95;;;6.03;;
1585;SDS011;786;48.718;9.514;2024-01-15T05:27:47;10.43;;;4.78;;
1585;SDS011;786;48.718;9.514;2024-01-15T05:30:14;11.35;;;6.13;;
1585;SDS011;786;48.718;9.514;2024-01-15T05:32:42;13.68;;;5.70;;
1585;SDS011;786;48.718;9.514;2024-01-15T05:35:09;13.65;;;6.35;;
1585;SDS011;786;48.718;9.514;2024-01-15T05:37:35;11.32;;;5.20;;
1585;SDS011;786;48.718;9.514;2024-01-15T05:40:01;13.05;;;6.13;;
1585;SDS011;786;48.718;9.514;2024-01-15T05:42:30;11.57;;;6.07;;
1585;SDS011;786;48.718;9.514;2024-01-15T05:44:57;10.63;;;4.85;;
1585;SDS011;786;48.718;9.514;2024-01-15T05:47:24;13.65;;;6.00;;
1585;SDS011;786;48.718;9.514;2024-01-15T05:49:52;17.17;;;6.05;;
1585;SDS011;786;48.718;9.514;2024-01-15T05:52:18;15.93;;;5.75;;
1585;SDS011;786;48.718;9.514;2024-01-15T05:54:45;14.52;;;6.30;;
1585;SDS011;786;48.718;9.514;2024-01-15T05:57:12;12.93;;;5.72;;
1585;SDS011;786;48.718;9.514;2024-01-15T05:59:38;10.57;;;5.38;;
1585;SDS011;786;48.718;9.514;2024-01-15T06:02:04;12.23;;;5.55;;
1585;SDS011;786;48.718;9.514;2024-01-15T06:04:31;15.90;;;6.40;;
1585;SDS011;786;48.718;9.514;2024-01-15T06:06:58;12.60;;;5.97;;
1585;SDS011;786;48.718;9.514;2024-01-15T06:09:25;13.93;;;6.53;;
1585;SDS011;786;48.718;9.514;2024-01-15T06:11:52;13.35;;;5.72;;
1585;SDS011;786;48.718;9.514;2024-01-15T06:14:19;10.80;;;6.35;;
1585;SDS011;786;48.718;9.514;2024-01-15T06:16:45;16.77;;;6.53;;
1585;SDS011;786;48.718;9.514;2024-01-15T06:19:11;12.40;;;6.30;;
1585;SDS011;786;48.718;9.514;2024-01-15T06:21:38;13.77;;;5.90;;
1585;SDS011;786;48.718;9.514;2024-01-15T06:24:06;12.93;;;5.97;;
1585;SDS011;786;48.718;9.514;2024-01-15T06:26:32;12.88;;;6.05;;
1585;SDS011;786;48.718;9.514;2024-01-15T06:28:58;14.10;;;6.20;;
1585;SDS011;786;48.718;9.514;2024-01-15T06:31:25;14.18;;;5.93;;
1585;SDS011;786;48.718;9.514;2024-01-15T06:33:51;13.77;;;6.28;;
1585;SDS011;786;48.718;9.514;2024-01-15T06:36:17;14.38;;;5.35;;
1585;SDS011;786;48.718;9.514;2024-01-15T06:38:44;8.90;;;5.57;;
1585;SDS011;786;48.718;9.514;2024-01-15T06:41:12;11.68;;;5.97;;
1585;SDS011;786;48.718;9.514;2024-01-15T06:43:38;15.95;;;7.10;;
1585;SDS011;786;48.718;9.514;2024-01-15T06:46:05;34.03;;;15.63;;
1585;SDS011;786;48.718;9.514;2024-01-15T06:48:31;52.20;;;18.33;;
1585;SDS011;786;48.718;9.514;2024-01-15T06:50:57;15.88;;;6.45;;
1585;SDS011;786;48.718;9.514;2024-01-15T06:53:24;15.05;;;9.25;;
1585;SDS011;786;48.718;9.514;2024-01-15T06:55:50;30.63;;;14.40;;
1585;SDS011;786;48.718;9.514;2024-01-15T06:58:18;38.45;;;19.98;;
1585;SDS011;786;48.718;9.514;2024-01-15T07:00:45;15.45;;;7.75;;
1585;SDS011;786;48.718;9.514;2024-01-15T07:03:11;15.68;;;7.82;;
1585;SDS011;786;48.718;9.514;2024-01-15T07:05:38;21.33;;;11.93;;
1585;SDS011;786;48.718;9.514;2024-01-15T07:08:04;29.25;;;15.50;;
1585;SDS011;786;48.718;9.514;2024-01-15T07:10:30;14.38;;;7.88;;
1585;SDS011;786;48.718;9.514;2024-01-15T07:12:57;13.27;;;5.65;;
1585;SDS011;786;48.718;9.514;2024-01-15T07:15:25;13.23;;;6.40;;
1585;SDS011;786;48.718;9.514;2024-01-15T07:17:51;10.35;;;5.80;;
1585;SDS011;786;48.718;9.514;2024-01-15T07:20:18;10.57;;;5.10;;
1585;SDS011;786;48.718;9.514;2024-01-15T07:22:45;10.38;;;5.47;;
1585;SDS011;786;48.718;9.514;2024-01-15T07:25:11;11.25;;;5.90;;
1585;SDS011;786;48.718;9.514;2024-01-15T07:27:38;12.98;;;6.53;;
1585;SDS011;786;48.718;9.514;2024-01-15T07:30:04;14.43;;;6.25;;
1585;SDS011;786;48.718;9.514;2024-01-15T07:32:33;12.30;;;5.95;;
1585;SDS011;786;48.718;9.514;2024-01-15T07:34:59;13.07;;;7.45;;
1585;SDS011;786;48.718;9.514;2024-01-15T07:37:26;12.77;;;6.60;;
1585;SDS011;786;48.718;9.514;2024-01-15T07:39:53;10.35;;;5.53;;
1585;SDS011;786;48.718;9.514;2024-01-15T07:42:19;10.85;;;5.10;;
1585;SDS011;786;48.718;9.514;2024-01-15T07:44:46;13.80;;;5.63;;
1585;SDS011;786;48.718;9.514;2024-01-15T07:47:12;10.20;;;6.75;;
1585;SDS011;786;48.718;9.514;2024-01-15T07:49:40;10.80;;;5.15;;
1585;SDS011;786;48.718;9.514;2024-01-15T07:52:06;13.98;;;6.60;;
1585;SDS011;786;48.718;9.514;2024-01-15T07:54:33;11.52;;;5.90;;
1585;SDS011;786;48.718;9.514;2024-01-15T07:57:00;12.45;;;5.85;;
1585;SDS011;786;48.718;9.514;2024-01-15T07:59:28;9.10;;;5.28;;
1585;SDS011;786;48.718;9.514;2024-01-15T08:01:54;12.00;;;6.15;;
1585;SDS011;786;48.718;9.514;2024-01-15T08:04:21;11.02;;;6.00;;
1585;SDS011;786;48.718;9.514;2024-01-15T08:06:49;11.25;;;5.38;;
1585;SDS011;786;48.718;9.514;2024-01-15T08:09:15;8.90;;;4.80;;
1585;SDS011;786;48.718;9.514;2024-01-15T08:11:42;9.18;;;5.32;;
1585;SDS011;786;48.718;9.514;2024-01-15T08:14:08;12.32;;;4.97;;
1585;SDS011;786;48.718;9.514;2024-01-15T08:16:35;12.63;;;6.05;;
1585;SDS011;786;48.718;9.514;2024-01-15T08:19:01;12.25;;;5.35;;
1585;SDS011;786;48.718;9.514;2024-01-15T08:21:27;11.32;;;5.18;;
1585;SDS011;786;48.718;9.514;2024-01-15T08:23:56;9.45;;;5.05;;
1585;SDS011;786;48.718;9.514;2024-01-15T08:26:22;9.60;;;5.30;;
1585;SDS011;786;48.718;9.514;2024-01-15T08:28:49;10.40;;;4.85;;
1585;SDS011;786;48.718;9.514;2024-01-15T08:31:15;9.45;;;4.65;;
1585;SDS011;786;48.718;9.514;2024-01-15T08:33:42;8.48;;;4.53;;
1585;SDS011;786;48.718;9.514;2024-01-15T08:36:08;8.70;;;4.95;;
1585;SDS011;786;48.718;9.514;2024-01-15T08:38:35;9.35;;;5.20;;
1585;SDS011;786;48.718;9.514;2024-01-15T08:41:03;11.23;;;5.68;;
1585;SDS011;786;48.718;9.514;2024-01-15T08:43:29;10.85;;;5.22;;
1585;SDS011;786;48.718;9.514;2024-01-15T08:45:56;8.00;;;4.38;;
1585;SDS011;786;48.718;9.514;2024-01-15T08:48:24;10.02;;;5.22;;
1585;SDS011;786;48.718;9.514;2024-01-15T08:50:52;12.80;;;6.32;;
1585;SDS011;786;48.718;9.514;2024-01-15T08:53:18;11.18;;;5.75;;
1585;SDS011;786;48.718;9.514;2024-01-15T08:55:45;10.60;;;5.70;;
1585;SDS011;786;48.718;9.514;2024-01-15T08:58:12;11.43;;;5.72;;
1585;SDS011;786;48.718;9.514;2024-01-15T09:00:39;9.13;;;5.60;;
1585;SDS011;786;48.718;9.514;2024-01-15T09:03:06;10.70;;;5.57;;
1585;SDS011;786;48.718;9.514;2024-01-15T09:05:33;11.30;;;5.80;;
1585;SDS011;786;48.718;9.514;2024-01-15T09:07:59;12.43;;;5.35;;
1585;SDS011;786;48.718;9.514;2024-01-15T09:10:26;9.13;;;4.47;;
1585;SDS011;786;48.718;9.514;2024-01-15T09:12:52;7.45;;;4.35;;
1585;SDS011;786;48.718;9.514;2024-01-15T09:15:20;13.23;;;6.25;;
1585;SDS011;786;48.718;9.514;2024-01-15T09:17:46;10.32;;;4.53;;
1585;SDS011;786;48.718;9.514;2024-01-15T09:20:12;9.88;;;4.50;;
1585;SDS011;786;48.718;9.514;2024-01-15T09:22:39;9.93;;;5.88;;
1585;SDS011;786;48.718;9.514;2024-01-15T09:25:07;9.80;;;4.18;;
1585;SDS011;786;48.718;9.514;2024-01-15T09:27:34;11.25;;;5.78;;
1585;SDS011;786;48.718;9.514;2024-01-15T09:30:01;8.13;;;4.40;;
1585;SDS011;786;48.718;9.514;2024-01-15T09:32:28;10.10;;;4.90;;
1585;SDS011;786;48.718;9.514;2024-01-15T09:34:55;8.15;;;4.25;;
1585;SDS011;786;48.718;9.514;2024-01-15T09:37:21;12.45;;;5.63;;
1585;SDS011;786;48.718;9.514;2024-01-15T09:39:48;6.60;;;4.45;;
1585;SDS011;786;48.718;9.514;2024-01-15T09:42:15;11.80;;;5.47;;
1585;SDS011;786;48.718;9.514;2024-01-15T09:44:42;9.38;;;4.55;;
1585;SDS011;786;48.718;9.514;2024-01-15T09:47:08;7.47;;;4.07;;
1585;SDS011;786;48.718;9.514;2024-01-15T09:49:36;6.78;;;3.67;;
1585;SDS011;786;48.718;9.514;2024-01-15T09:52:03;8.80;;;3.63;;
1585;SDS011;786;48.718;9.514;2024-01-15T09:54:31;7.22;;;4.72;;
1585;SDS011;786;48.718;9.514;2024-01-15T09:56:57;7.28;;;3.80;;
1585;SDS011;786;48.718;9.514;2024-01-15T09:59:24;5.75;;;3.58;;
1585;SDS011;786;48.718;9.514;2024-01-15T10:01:52;7.43;;;4.05;;
1585;SDS011;786;48.718;9.514;2024-01-15T10:04:19;5.60;;;4.07;;
1585;SDS011;786;48.718;9.514;2024-01-15T10:06:47;5.95;;;3.97;;
1585;SDS011;786;48.718;9.514;2024-01-15T10:09:14;7.63;;;3.97;;
1585;SDS011;786;48.718;9.514;2024-01-15T10:11:40;6.43;;;4.60;;
1585;SDS011;786;48.718;9.514;2024-01-15T10:14:07;6.80;;;3.92;;
1585;SDS011;786;48.718;9.514;2024-01-15T10:16:34;7.82;;;3.95;;
1585;SDS011;786;48.718;9.514;2024-01-15T10:19:01;6.40;;;3.25;;
1585;SDS011;786;48.718;9.514;2024-01-15T10:21:27;5.25;;;3.47;;
1585;SDS011;786;48.718;9.514;2024-01-15T10:23:55;5.53;;;3.42;;
1585;SDS011;786;48.718;9.514;2024-01-15T10:26:24;6.00;;;3.30;;
1585;SDS011;786;48.718;9.514;2024-01-15T10:28:50;6.78;;;3.75;;
1585;SDS011;786;48.718;9.514;2024-01-15T10:31:17;5.00;;;3.83;;
1585;SDS011;786;48.718;9.514;2024-01-15T10:33:44;4.35;;;2.72;;
1585;SDS011;786;48.718;9.514;2024-01-15T10:36:11;5.88;;;3.17;;
1585;SDS011;786;48.718;9.514;2024-01-15T10:38:37;6.22;;;3.65;;
1585;SDS011;786;48.718;9.514;2024-01-15T10:41:05;4.78;;;3.08;;
1585;SDS011;786;48.718;9.514;2024-01-15T10:43:31;5.05;;;3.38;;
1585;SDS011;786;48.718;9.514;2024-01-15T10:45:59;4.72;;;2.75;;
1585;SDS011;786;48.718;9.514;2024-01-15T10:48:26;5.28;;;3.05;;
1585;SDS011;786;48.718;9.514;2024-01-15T10:50:53;4.05;;;3.00;;
1585;SDS011;786;48.718;9.514;2024-01-15T10:53:20;4.82;;;3.40;;
1585;SDS011;786;48.718;9.514;2024-01-15T10:55:46;5.30;;;2.65;;
1585;SDS011;786;48.718;9.514;2024-01-15T10:58:15;4.93;;;2.72;;
1585;SDS011;786;48.718;9.514;2024-01-15T11:00:42;3.90;;;3.50;;
1585;SDS011;786;48.718;9.514;2024-01-15T11:03:09;5.00;;;3.50;;
1585;SDS011;786;48.718;9.514;2024-01-15T11:05:36;5.07;;;2.80;;
1585;SDS011;786;48.718;9.514;2024-01-15T11:08:04;4.43;;;2.65;;
1585;SDS011;786;48.718;9.514;2024-01-15T11:10:38;6.75;;;3.40;;
1585;SDS011;786;48.718;9.514;2024-01-15T11:13:05;4.50;;;2.75;;
1585;SDS011;786;48.718;9.514;2024-01-15T11:15:32;3.45;;;2.70;;
1585;SDS011;786;48.718;9.514;2024-01-15T11:18:26;3.33;;;2.75;;
1585;SDS011;786;48.718;9.514;2024-01-15T11:23:50;3.50;;;2.92;;
1585;SDS011;786;48.718;9.514;2024-01-15T11:26:30;5.63;;;3.35;;
1585;SDS011;786;48.718;9.514;2024-01-15T11:28:58;4.43;;;2.90;;
1585;SDS011;786;48.718;9.514;2024-01-15T11:31:28;4.65;;;3.65;;
1585;SDS011;786;48.718;9.514;2024-01-15T11:33:54;4.45;;;2.65;;
1585;SDS011;786;48.718;9.514;2024-01-15T11:36:21;5.60;;;3.95;;
1585;SDS011;786;48.718;9.514;2024-01-15T11:38:47;5.30;;;3.17;;
1585;SDS011;786;48.718;9.514;2024-01-15T11:41:14;7.13;;;3.65;;
1585;SDS011;786;48.718;9.514;2024-01-15T11:43:41;6.10;;;3.60;;
1585;SDS011;786;48.718;9.514;2024-01-15T11:46:09;4.28;;;3.08;;
1585;SDS011;786;48.718;9.514;2024-01-15T11:48:42;4.95;;;3.13;;
1585;SDS011;786;48.718;9.514;2024-01-15T11:51:10;4.47;;;2.97;;
1585;SDS011;786;48.718;9.514;2024-01-15T11:53:40;3.55;;;2.67;;
1585;SDS011;786;48.718;9.514;2024-01-15T11:56:11;5.07;;;2.95;;
1585;SDS011;786;48.718;9.514;2024-01-15T11:58:40;5.80;;;3.28;;
1585;SDS011;786;48.718;9.514;2024-01-15T12:01:07;6.07;;;3.05;;
1585;SDS011;786;48.718;9.514;2024-01-15T12:03:34;5.30;;;3.45;;
1585;SDS011;786;48.718;9.514;2024-01-15T12:06:01;3.63;;;2.75;;
1585;SDS011;786;48.718;9.514;2024-01-15T12:08:28;9.10;;;3.90;;
1585;SDS011;786;48.718;9.514;2024-01-15T12:10:54;3.80;;;3.00;;
1585;SDS011;786;48.718;9.514;2024-01-15T12:13:22;4.68;;;3.08;;
1585;SDS011;786;48.718;9.514;2024-01-15T12:15:48;4.47;;;2.65;;
1585;SDS011;786;48.718;9.514;2024-01-15T12:18:15;5.65;;;3.15;;
1585;SDS011;786;48.718;9.514;2024-01-15T12:20:43;3.85;;;3.28;;
1585;SDS011;786;48.718;9.514;2024-01-15T12:23:13;6.13;;;3.28;;
1585;SDS011;786;48.718;9.514;2024-01-15T12:25:40;5.13;;;3.17;;
1585;SDS011;786;48.718;9.514;2024-01-15T12:28:06;6.13;;;3.63;;
1585;SDS011;786;48.718;9.514;2024-01-15T12:30:33;4.82;;;3.22;;
1585;SDS011;786;48.718;9.514;2024-01-15T12:33:01;5.28;;;3.20;;
1585;SDS011;786;48.718;9.514;2024-01-15T12:35:28;5.97;;;3.42;;
1585;SDS011;786;48.718;9.514;2024-01-15T12:37:55;4.22;;;2.83;;
1585;SDS011;786;48.718;9.514;2024-01-15T12:40:23;7.00;;;2.95;;
1585;SDS011;786;48.718;9.514;2024-01-15T12:42:50;8.52;;;3.58;;
1585;SDS011;786;48.718;9.514;2024-01-15T12:45:17;4.25;;;3.40;;
1585;SDS011;786;48.718;9.514;2024-01-15T12:47:43;5.40;;;3.45;;
1585;SDS011;786;48.718;9.514;2024-01-15T12:50:10;5.80;;;3.15;;
1585;SDS011;786;48.718;9.514;2024-01-15T12:52:39;4.72;;;3.50;;
1585;SDS011;786;48.718;9.514;2024-01-15T12:55:07;5.50;;;3.15;;
1585;SDS011;786;48.718;9.514;2024-01-15T12:57:35;4.68;;;3.05;;
1585;SDS011;786;48.718;9.514;2024-01-15T13:00:03;6.50;;;3.65;;
1585;SDS011;786;48.718;9.514;2024-01-15T13:02:31;5.50;;;3.80;;
1585;SDS011;786;48.718;9.514;2024-01-15T13:04:58;5.65;;;3.88;;
1585;SDS011;786;48.718;9.514;2024-01-15T13:07:25;8.88;;;4.07;;
1585;SDS011;786;48.718;9.514;2024-01-15T13:09:52;6.15;;;3.70;;
1585;SDS011;786;48.718;9.514;2024-01-15T13:12:18;7.20;;;4.07;;
1585;SDS011;786;48.718;9.514;2024-01-15T13:14:46;7.93;;;3.53;;
1585;SDS011;786;48.718;9.514;2024-01-15T13:17:13;9.27;;;3.88;;
1585;SDS011;786;48.718;9.514;2024-01-15T13:19:40;5.82;;;3.63;;
1585;SDS011;786;48.718;9.514;2024-01-15T13:22:06;7.15;;;3.75;;
1585;SDS011;786;48.718;9.514;2024-01-15T13:24:34;7.47;;;4.53;;
1585;SDS011;786;48.718;9.514;2024-01-15T13:27:01;6.95;;;4.50;;
1585;SDS011;786;48.718;9.514;2024-01-15T13:29:27;7.25;;;4.60;;
1585;SDS011;786;48.718;9.514;2024-01-15T13:31:55;8.73;;;4.55;;
1585;SDS011;786;48.718;9.514;2024-01-15T13:34:21;8.48;;;5.38;;
1585;SDS011;786;48.718;9.514;2024-01-15T13:36:48;6.93;;;4.72;;
1585;SDS011;786;48.718;9.514;2024-01-15T13:39:15;11.63;;;5.53;;
1585;SDS011;786;48.718;9.514;2024-01-15T13:41:45;11.05;;;5.53;;
1585;SDS011;786;48.718;9.514;2024-01-15T13:44:11;6.75;;;4.35;;
1585;SDS011;786;48.718;9.514;2024-01-15T13:46:37;12.07;;;6.63;;
1585;SDS011;786;48.718;9.514;2024-01-15T13:49:05;11.80;;;6.10;;
1585;SDS011;786;48.718;9.514;2024-01-15T13:51:32;9.60;;;5.18;;
1585;SDS011;786;48.718;9.514;2024-01-15T13:53:59;17.52;;;9.20;;
1585;SDS011;786;48.718;9.514;2024-01-15T13:56:26;8.85;;;4.90;;
1585;SDS011;786;48.718;9.514;2024-01-15T13:58:56;10.93;;;5.47;;
1585;SDS011;786;48.718;9.514;2024-01-15T14:01:23;15.05;;;8.05;;
1585;SDS011;786;48.718;9.514;2024-01-15T14:03:49;6.75;;;4.50;;
1585;SDS011;786;48.718;9.514;2024-01-15T14:06:17;7.88;;;4.00;;
1585;SDS011;786;48.718;9.514;2024-01-15T14:08:43;10.25;;;5.15;;
1585;SDS011;786;48.718;9.514;2024-01-15T14:11:10;11.18;;;5.38;;
1585;SDS011;786;48.718;9.514;2024-01-15T14:13:36;9.43;;;4.68;;
1585;SDS011;786;48.718;9.514;2024-01-15T14:16:03;8.80;;;5.05;;
1585;SDS011;786;48.718;9.514;2024-01-15T14:18:30;9.98;;;4.95;;
1585;SDS011;786;48.718;9.514;2024-01-15T14:20:57;8.30;;;4.70;;
1585;SDS011;786;48.718;9.514;2024-01-15T14:23:24;10.15;;;5.10;;
1585;SDS011;786;48.718;9.514;2024-01-15T14:25:51;8.30;;;5.35;;
1585;SDS011;786;48.718;9.514;2024-01-15T14:28:17;10.30;;;4.93;;
1585;SDS011;786;48.718;9.514;2024-01-15T14:30:43;6.82;;;4.30;;
1585;SDS011;786;48.718;9.514;2024-01-15T14:33:10;10.07;;;4.75;;
1585;SDS011;786;48.718;9.514;2024-01-15T14:35:36;10.15;;;5.03;;
1585;SDS011;786;48.718;9.514;2024-01-15T14:38:03;12.98;;;6.95;;
1585;SDS011;786;48.718;9.514;2024-01-15T14:40:31;5.80;;;4.47;;
1585;SDS011;786;48.718;9.514;2024-01-15T14:42:57;9.68;;;5.68;;
1585;SDS011;786;48.718;9.514;2024-01-15T14:45:24;10.68;;;5.95;;
1585;SDS011;786;48.718;9.514;2024-01-15T14:47:52;12.85;;;7.80;;
1585;SDS011;786;48.718;9.514;2024-01-15T14:50:18;13.75;;;6.65;;
1585;SDS011;786;48.718;9.514;2024-01-15T14:52:45;15.63;;;9.07;;
1585;SDS011;786;48.718;9.514;2024-01-15T14:55:12;12.20;;;6.05;;
1585;SDS011;786;48.718;9.514;2024-01-15T14:57:39;8.25;;;5.07;;
1585;SDS011;786;48.718;9.514;2024-01-15T15:00:06;9.73;;;5.50;;
1585;SDS011;786;48.718;9.514;2024-01-15T15:02:34;7.63;;;4.05;;
1585;SDS011;786;48.718;9.514;2024-01-15T15:05:01;9.48;;;4.47;;
1585;SDS011;786;48.718;9.514;2024-01-15T15:07:27;7.47;;;4.78;;
1585;SDS011;786;48.718;9.514;2024-01-15T15:09:54;8.50;;;5.28;;
1585;SDS011;786;48.718;9.514;2024-01-15T15:12:20;8.18;;;4.47;;
1585;SDS011;786;48.718;9.514;2024-01-15T15:14:48;8.48;;;4.10;;
1585;SDS011;786;48.718;9.514;2024-01-15T15:17:14;9.75;;;5.35;;
1585;SDS011;786;48.718;9.514;2024-01-15T15:19:41;9.63;;;4.65;;
1585;SDS011;786;48.718;9.514;2024-01-15T15:22:07;5.88;;;3.35;;